Baker Lake Airport
CYBK : now visible

Airfield :











YOU CAN JOIN US ON...

 
LOGIN :

Register | Disclaimer

   EN    FR    IT 

 









Legend :    VFR   Marginal VFR   IFR   Intensive IFR   Very Intensive IFR
Visi :
Ceiling :
>= 8 km
>= 3000ft
5 to 8 km
1000 to 3000 ft
1500m to 5 km
500 to 1000 ft
800 to 1500m
200 to 500 ft
< 800m
< 200 ft
Symbols :   Thunderstorms  Fog  Heavy snow  Heavy precipitations  Wind > 20 kt






- Airport Elevation : 59 ft
- IATA code : YBK


CYBK - Baker Lake

CURRENT METAR :
  • 170100Z 10007KT 25SM FEW040 BKN140 OVC200 06/01 A2974 RMK SC1AC5CI3 SC TR SLP075

EXPIRED METARs :
  • 170000Z 10007KT 25SM SCT059 BKN130 OVC220 09/01 A2975 RMK SC3AC3CI2 SLP077
  • 162300Z 11007KT 25SM FEW040 BKN130 BKN220 09/00 A2976 RMK SC1AC6CI1 CI TR SLP080
  • 162200Z 11007KT 25SM FEW045 SCT098 BKN150 12/01 A2977 RMK SC1AC3AC4 SC TR SLP083
  • 162100Z 09007KT 25SM FEW045 BKN096 BKN220 11/01 A2977 RMK SC1AC4CI2 SLP084

TAF TAF CYBK
Valid from the 17 at 00:00 until the 17 at 12:00 UTC


162340Z 1700/1712 11007KT P6SM FEW040 SCT100 BKN220
TEMPO 1700/1706 BKN100
BECMG 1701/1703 01010KT
FM170600 03015KT P6SM BKN150
TEMPO 1706/1712 BKN110 RMK NXT FCST BY 170600Z
CZEG FIR / North America



MET'MAP, your aeronautical weather chart ! - Copyright ORBIFLY December 2007 - Disclaimer

ORBIFLY MET'MAP TEAM :

Programming & Development : Alexandra Zaïnal
Original concept : Baudouin d'Aumeries
Technical & hardware support : Manuel Goepfert
Assistance : Marc-Olivier Méhu




SOURCES & CREDITS :

   NOAA       Earth
Advisory